Time;durP1;ratioP1;P1;durP2;ratioP2;P2;SDS_P1;SDS_P2;PMS_P1;PMS_P2;Temp;Humidity;BMP_temperature;BMP_pressure;BME280_temperature;BME280_humidity;BME280_pressure;Samples;Min_cycle;Max_cycle;Signal;HPM_P1;HPM_P2
2022/05/23 00:01:31;;;;;;;3.20;2.90;;;;;;;;;;4922363;29;20960;-75
2022/05/23 00:03:58;;;;;;;3.50;3.20;;;;;;;;;;4933962;29;20478;-75
2022/05/23 00:06:24;;;;;;;4.03;3.30;;;;;;;;;;4933869;29;20458;-76
2022/05/23 00:08:51;;;;;;;4.13;3.63;;;;;;;;;;4901425;29;20452;-75
2022/05/23 00:11:20;;;;;;;3.13;2.87;;;;;;;;;;4901366;29;20601;-76
2022/05/23 00:13:47;;;;;;;4.00;3.60;;;;;;;;;;4949053;29;20470;-76
2022/05/23 00:16:17;;;;;;;3.80;3.40;;;;;;;;;;4932001;29;20461;-75
2022/05/23 00:18:44;;;;;;;4.00;3.27;;;;;;;;;;4922518;29;20509;-75
2022/05/23 00:21:10;;;;;;;3.10;2.90;;;;;;;;;;4920585;29;20543;-75
2022/05/23 00:23:37;;;;;;;3.53;3.23;;;;;;;;;;4943168;29;20542;-75
2022/05/23 00:26:04;;;;;;;3.83;3.47;;;;;;;;;;4953085;29;20554;-76
2022/05/23 00:28:32;;;;;;;3.70;3.40;;;;;;;;;;4932509;29;20441;-76
2022/05/23 00:30:58;;;;;;;4.23;3.83;;;;;;;;;;4922500;29;20465;-76
2022/05/23 00:36:11;;;;;;;4.07;3.60;;;;;;;;;;4933840;29;20449;-75
2022/05/23 00:38:38;;;;;;;3.80;3.50;;;;;;;;;;4933933;29;20442;-75
2022/05/23 00:43:58;;;;;;;6.63;3.70;;;;;;;;;;4955176;29;20445;-75
2022/05/23 00:46:25;;;;;;;4.40;4.00;;;;;;;;;;4932360;29;20460;-75
2022/05/23 00:48:52;;;;;;;3.80;3.50;;;;;;;;;;4920558;29;20433;-75
2022/05/23 00:51:19;;;;;;;5.20;3.20;;;;;;;;;;4943956;29;20881;-75
2022/05/23 00:53:47;;;;;;;4.30;3.67;;;;;;;;;;4937404;29;20833;-75
2022/05/23 00:56:16;;;;;;;3.97;3.17;;;;;;;;;;4919790;29;20452;-75
2022/05/23 00:58:44;;;;;;;4.20;3.90;;;;;;;;;;4918585;29;20426;-75
2022/05/23 01:01:14;;;;;;;3.93;3.63;;;;;;;;;;4923877;29;20459;-75
2022/05/23 01:03:41;;;;;;;4.30;3.90;;;;;;;;;;4938579;29;20479;-75
2022/05/23 01:06:08;;;;;;;5.10;4.40;;;;;;;;;;4923082;29;21009;-76
2022/05/23 01:08:37;;;;;;;4.00;3.70;;;;;;;;;;4925530;29;20452;-76
2022/05/23 01:11:04;;;;;;;6.23;4.00;;;;;;;;;;4910505;29;20788;-76
2022/05/23 01:13:31;;;;;;;4.33;3.93;;;;;;;;;;4936779;29;20902;-76
2022/05/23 01:15:58;;;;;;;4.17;3.73;;;;;;;;;;4917285;29;20504;-76
2022/05/23 01:18:29;;;;;;;4.43;3.50;;;;;;;;;;4903405;29;20799;-76
2022/05/23 01:20:57;;;;;;;4.03;3.73;;;;;;;;;;4936410;29;20795;-76
2022/05/23 01:23:28;;;;;;;3.97;3.57;;;;;;;;;;4919435;29;20442;-76
2022/05/23 01:26:12;;;;;;;4.30;3.90;;;;;;;;;;4919677;29;20481;-76
2022/05/23 01:28:52;;;;;;;4.33;4.03;;;;;;;;;;4929835;29;20917;-76
2022/05/23 01:31:37;;;;;;;4.77;3.97;;;;;;;;;;4930845;29;20460;-76
2022/05/23 01:34:13;;;;;;;3.97;3.57;;;;;;;;;;4920290;29;20471;-76
2022/05/23 01:36:49;;;;;;;4.70;3.83;;;;;;;;;;4904839;29;20940;-75
2022/05/23 01:39:16;;;;;;;4.10;3.60;;;;;;;;;;4930312;29;20519;-76
2022/05/23 01:41:44;;;;;;;4.20;3.80;;;;;;;;;;4918859;29;20486;-76
2022/05/23 01:44:11;;;;;;;4.30;3.90;;;;;;;;;;4929224;29;20455;-76
2022/05/23 01:46:42;;;;;;;3.90;3.60;;;;;;;;;;4924166;29;20453;-76
2022/05/23 01:49:25;;;;;;;3.90;3.50;;;;;;;;;;4913552;29;20465;-76
2022/05/23 01:51:52;;;;;;;4.53;3.73;;;;;;;;;;4919349;29;20457;-75
2022/05/23 01:54:24;;;;;;;4.80;3.60;;;;;;;;;;4919297;29;20614;-76
2022/05/23 01:56:52;;;;;;;4.23;3.87;;;;;;;;;;4904471;29;20474;-76
2022/05/23 02:02:09;;;;;;;4.53;4.13;;;;;;;;;;4902820;29;20880;-76
2022/05/23 02:04:38;;;;;;;4.67;4.27;;;;;;;;;;4905028;29;20522;-76
2022/05/23 02:07:06;;;;;;;3.67;3.37;;;;;;;;;;4903658;29;20878;-76
2022/05/23 02:09:35;;;;;;;4.10;3.70;;;;;;;;;;4901485;29;20447;-76
2022/05/23 02:12:10;;;;;;;4.67;3.67;;;;;;;;;;4918979;29;20851;-76
2022/05/23 02:14:37;;;;;;;4.73;3.57;;;;;;;;;;4918427;29;20491;-76
2022/05/23 02:17:10;;;;;;;4.23;3.83;;;;;;;;;;4928966;29;20527;-76
2022/05/23 02:19:37;;;;;;;3.27;3.07;;;;;;;;;;4919192;29;20432;-76
2022/05/23 02:22:13;;;;;;;3.63;3.33;;;;;;;;;;4914347;29;20452;-76
2022/05/23 02:24:39;;;;;;;3.67;3.37;;;;;;;;;;4902843;29;20792;-75
2022/05/23 02:27:06;;;;;;;3.50;3.20;;;;;;;;;;4932915;29;21020;-75
2022/05/23 02:29:38;;;;;;;3.10;2.90;;;;;;;;;;4903109;29;20927;-76
2022/05/23 02:32:06;;;;;;;3.90;3.50;;;;;;;;;;4916459;29;20467;-75
2022/05/23 02:34:32;;;;;;;3.70;3.17;;;;;;;;;;4904931;29;20483;-76
2022/05/23 02:36:59;;;;;;;3.30;3.00;;;;;;;;;;4911535;29;20582;-76
2022/05/23 02:39:39;;;;;;;4.17;3.60;;;;;;;;;;4902841;29;20544;-76
2022/05/23 02:42:07;;;;;;;4.10;3.70;;;;;;;;;;4883494;29;20457;-76
2022/05/23 02:44:36;;;;;;;3.83;3.53;;;;;;;;;;4883418;29;20449;-76
2022/05/23 02:47:05;;;;;;;3.77;3.43;;;;;;;;;;4904877;29;20558;-76
2022/05/23 02:49:36;;;;;;;3.97;3.27;;;;;;;;;;4902904;29;20524;-76
2022/05/23 02:52:03;;;;;;;4.60;3.90;;;;;;;;;;4915461;29;20520;-76
2022/05/23 02:54:47;;;;;;;4.60;3.67;;;;;;;;;;4900685;29;20476;-76
2022/05/23 02:57:13;;;;;;;3.53;3.20;;;;;;;;;;4918046;29;20460;-76
2022/05/23 02:59:40;;;;;;;3.10;2.90;;;;;;;;;;4918237;29;20448;-77
2022/05/23 03:04:56;;;;;;;5.90;3.03;;;;;;;;;;4930607;29;20472;-76
2022/05/23 03:07:22;;;;;;;3.50;3.20;;;;;;;;;;4918721;29;21047;-76
2022/05/23 03:10:00;;;;;;;2.97;2.70;;;;;;;;;;4923076;29;20882;-76
2022/05/23 03:12:28;;;;;;;2.97;2.67;;;;;;;;;;4883492;29;20442;-76
2022/05/23 03:14:55;;;;;;;4.70;2.70;;;;;;;;;;4916920;29;20907;-76
2022/05/23 03:17:23;;;;;;;4.30;3.47;;;;;;;;;;4922257;29;20845;-76
2022/05/23 03:19:49;;;;;;;3.00;2.80;;;;;;;;;;4917953;29;20459;-76
2022/05/23 03:27:46;;;;;;;3.10;2.90;;;;;;;;;;4904540;29;20437;-76
2022/05/23 03:30:23;;;;;;;3.10;2.90;;;;;;;;;;4899323;29;20892;-77
2022/05/23 03:32:57;;;;;;;3.10;2.90;;;;;;;;;;4900604;29;20461;-77
2022/05/23 03:35:23;;;;;;;3.70;3.40;;;;;;;;;;4902159;29;20487;-76
2022/05/23 03:37:51;;;;;;;3.97;3.50;;;;;;;;;;4911961;29;20884;-76
2022/05/23 03:40:18;;;;;;;3.03;2.83;;;;;;;;;;4917855;29;20455;-76
2022/05/23 03:42:49;;;;;;;3.33;3.00;;;;;;;;;;4904482;29;20456;-76
2022/05/23 03:45:17;;;;;;;4.43;3.73;;;;;;;;;;4917726;29;20525;-76
2022/05/23 03:47:47;;;;;;;3.77;3.37;;;;;;;;;;4917420;29;20452;-76
2022/05/23 03:50:17;;;;;;;4.40;4.10;;;;;;;;;;4903040;29;20471;-76
2022/05/23 03:52:44;;;;;;;3.70;3.40;;;;;;;;;;4918438;29;20539;-77
2022/05/23 03:55:19;;;;;;;3.53;3.23;;;;;;;;;;4917448;29;20483;-76
2022/05/23 03:57:49;;;;;;;3.50;3.27;;;;;;;;;;4906104;29;20452;-76
2022/05/23 04:00:17;;;;;;;4.37;3.87;;;;;;;;;;4915018;29;20512;-76
2022/05/23 04:02:44;;;;;;;3.20;2.97;;;;;;;;;;4933288;29;20861;-76
2022/05/23 04:05:14;;;;;;;4.80;4.10;;;;;;;;;;4930619;29;20483;-76
2022/05/23 04:08:01;;;;;;;4.60;3.70;;;;;;;;;;4932319;29;20433;-77
2022/05/23 04:10:34;;;;;;;3.90;3.60;;;;;;;;;;4918553;29;20466;-76
2022/05/23 04:13:02;;;;;;;4.20;3.77;;;;;;;;;;4935392;29;20930;-76
2022/05/23 04:15:28;;;;;;;3.73;3.43;;;;;;;;;;4932622;29;20542;-75
2022/05/23 04:17:56;;;;;;;4.50;3.40;;;;;;;;;;4905481;29;20476;-75
2022/05/23 04:20:23;;;;;;;3.50;3.20;;;;;;;;;;4936685;29;20973;-75
2022/05/23 04:23:13;;;;;;;4.70;3.53;;;;;;;;;;4938369;29;20498;-76
2022/05/23 04:25:41;;;;;;;4.43;3.60;;;;;;;;;;4939789;29;20552;-75
2022/05/23 04:28:08;;;;;;;3.20;2.87;;;;;;;;;;4907261;29;20806;-76
2022/05/23 04:30:37;;;;;;;3.43;3.13;;;;;;;;;;4939670;29;20574;-76
2022/05/23 04:35:49;;;;;;;3.53;3.23;;;;;;;;;;4904714;29;20476;-76
2022/05/23 04:38:20;;;;;;;4.73;3.40;;;;;;;;;;4916251;29;20437;-75
2022/05/23 04:40:48;;;;;;;3.53;3.23;;;;;;;;;;4939271;29;20488;-76
2022/05/23 04:43:16;;;;;;;4.00;3.13;;;;;;;;;;4923386;29;20444;-76
2022/05/23 04:45:43;;;;;;;3.33;3.03;;;;;;;;;;4922902;29;20490;-76
2022/05/23 04:51:22;;;;;;;4.97;3.10;;;;;;;;;;4892770;29;20479;-77
2022/05/23 04:53:54;;;;;;;3.77;3.37;;;;;;;;;;4903683;29;20538;-77
2022/05/23 04:56:21;;;;;;;3.30;3.00;;;;;;;;;;4904683;29;20504;-77
2022/05/23 04:58:52;;;;;;;3.17;2.90;;;;;;;;;;4901552;29;20452;-77
2022/05/23 05:01:21;;;;;;;4.63;3.47;;;;;;;;;;4937630;29;20489;-77
2022/05/23 05:03:47;;;;;;;4.63;3.63;;;;;;;;;;4923328;29;20489;-77
2022/05/23 05:06:14;;;;;;;4.90;3.90;;;;;;;;;;4925042;29;21023;-77
2022/05/23 05:08:42;;;;;;;3.60;3.30;;;;;;;;;;4929496;29;20459;-77
2022/05/23 05:11:10;;;;;;;5.97;3.90;;;;;;;;;;4933087;29;20448;-77
2022/05/23 05:13:39;;;;;;;4.20;3.83;;;;;;;;;;4904531;29;20924;-77
2022/05/23 05:16:08;;;;;;;3.80;3.47;;;;;;;;;;4909342;29;20546;-77
2022/05/23 05:18:37;;;;;;;4.07;3.67;;;;;;;;;;4912625;29;20472;-77
2022/05/23 05:21:24;;;;;;;4.43;4.03;;;;;;;;;;4922496;29;20873;-77
2022/05/23 05:24:11;;;;;;;3.93;3.50;;;;;;;;;;4915937;29;20458;-77
2022/05/23 05:26:46;;;;;;;4.63;4.23;;;;;;;;;;4901508;29;20531;-77
2022/05/23 05:29:13;;;;;;;3.67;3.37;;;;;;;;;;4903890;29;20559;-77
2022/05/23 05:31:45;;;;;;;4.03;3.70;;;;;;;;;;4932378;29;20456;-76
2022/05/23 05:34:14;;;;;;;4.20;3.83;;;;;;;;;;4916922;29;20551;-77
2022/05/23 05:36:42;;;;;;;4.07;3.70;;;;;;;;;;4935951;29;20459;-78
2022/05/23 05:39:09;;;;;;;6.60;4.17;;;;;;;;;;4923281;29;20444;-78
2022/05/23 05:41:39;;;;;;;4.93;4.43;;;;;;;;;;4908163;29;20486;-77
2022/05/23 05:44:09;;;;;;;5.10;4.70;;;;;;;;;;4902544;29;20445;-77
2022/05/23 05:46:49;;;;;;;4.83;4.43;;;;;;;;;;4919472;29;20490;-76
2022/05/23 05:49:26;;;;;;;6.47;4.80;;;;;;;;;;4919556;29;20441;-77
2022/05/23 05:51:57;;;;;;;5.23;4.80;;;;;;;;;;4934591;29;20968;-77
2022/05/23 05:54:49;;;;;;;5.03;4.53;;;;;;;;;;4936012;29;20830;-77
2022/05/23 05:57:16;;;;;;;8.00;5.10;;;;;;;;;;4923684;29;20886;-77
2022/05/23 05:59:44;;;;;;;6.00;5.07;;;;;;;;;;4918264;29;20871;-76
2022/05/23 06:02:12;;;;;;;6.37;5.70;;;;;;;;;;4916480;29;20469;-76
2022/05/23 06:04:40;;;;;;;5.87;5.27;;;;;;;;;;4885730;29;20573;-76
2022/05/23 06:13:26;;;;;;;6.93;4.53;;;;;;;;;;4895048;29;20987;-78
2022/05/23 06:16:06;;;;;;;6.40;5.80;;;;;;;;;;4918107;29;20479;-78
2022/05/23 06:18:40;;;;;;;7.60;6.20;;;;;;;;;;4901570;29;20484;-78
2022/05/23 06:21:09;;;;;;;6.77;6.17;;;;;;;;;;4921455;29;20466;-78
2022/05/23 06:23:38;;;;;;;7.50;5.93;;;;;;;;;;4905514;29;20986;-78
2022/05/23 06:26:34;;;;;;;11.40;6.70;;;;;;;;;;4911939;29;20472;-78
2022/05/23 06:29:30;;;;;;;9.50;6.80;;;;;;;;;;4913988;29;20460;-78
2022/05/23 06:32:07;;;;;;;6.80;6.10;;;;;;;;;;4904047;29;20456;-79
2022/05/23 06:34:44;;;;;;;10.97;7.07;;;;;;;;;;4902025;29;20436;-77
2022/05/23 06:37:11;;;;;;;11.33;6.60;;;;;;;;;;4928150;29;20459;-79
2022/05/23 06:39:38;;;;;;;6.70;6.10;;;;;;;;;;4894599;29;20468;-79
2022/05/23 06:42:34;;;;;;;6.33;5.60;;;;;;;;;;4927192;29;20470;-79
2022/05/23 06:45:23;;;;;;;5.63;5.13;;;;;;;;;;4905521;29;20565;-79
2022/05/23 06:48:29;;;;;;;6.53;5.93;;;;;;;;;;4916167;29;20445;-79
2022/05/23 06:51:03;;;;;;;6.90;6.20;;;;;;;;;;4906622;29;20623;-79
2022/05/23 06:53:36;;;;;;;6.43;5.73;;;;;;;;;;4911763;29;20571;-79
2022/05/23 06:56:23;;;;;;;6.53;5.93;;;;;;;;;;4915042;29;20863;-79
2022/05/23 06:58:55;;;;;;;7.03;5.73;;;;;;;;;;4895368;29;20445;-79
2022/05/23 07:01:30;;;;;;;5.90;5.40;;;;;;;;;;4917627;29;20451;-77
2022/05/23 07:04:14;;;;;;;6.60;5.57;;;;;;;;;;4912796;29;20575;-77
2022/05/23 07:12:23;;;;;;;6.50;5.77;;;;;;;;;;4883347;29;20894;-77
2022/05/23 07:14:56;;;;;;;5.77;5.27;;;;;;;;;;4904071;29;20437;-77
2022/05/23 07:17:24;;;;;;;5.47;4.97;;;;;;;;;;4902032;29;20779;-77
2022/05/23 07:20:13;;;;;;;5.77;5.27;;;;;;;;;;4913636;29;20969;-75
2022/05/23 07:22:42;;;;;;;5.83;5.23;;;;;;;;;;4929530;29;20456;-76
2022/05/23 07:25:09;;;;;;;5.63;5.13;;;;;;;;;;4919607;29;20924;-76
2022/05/23 07:27:36;;;;;;;6.73;5.10;;;;;;;;;;4921437;29;20837;-75
2022/05/23 07:30:03;;;;;;;7.93;5.60;;;;;;;;;;4919511;29;20441;-75
2022/05/23 07:32:33;;;;;;;6.50;5.60;;;;;;;;;;4917879;29;20449;-75
2022/05/23 07:35:00;;;;;;;5.60;5.10;;;;;;;;;;4901474;29;20468;-75
2022/05/23 07:37:29;;;;;;;5.93;5.10;;;;;;;;;;4925160;29;20455;-75
2022/05/23 07:39:57;;;;;;;7.27;5.20;;;;;;;;;;4929713;29;20810;-75
2022/05/23 07:42:40;;;;;;;7.13;5.87;;;;;;;;;;4895060;29;20453;-75
2022/05/23 07:45:08;;;;;;;5.47;5.00;;;;;;;;;;4925369;29;20445;-76
2022/05/23 07:47:37;;;;;;;6.10;5.20;;;;;;;;;;4917126;29;20550;-75
2022/05/23 07:50:23;;;;;;;5.13;4.63;;;;;;;;;;4916315;29;20448;-75
2022/05/23 08:01:11;;;;;;;5.37;4.67;;;;;;;;;;4912218;29;20483;-76
2022/05/23 08:03:40;;;;;;;6.43;4.80;;;;;;;;;;4914953;29;20476;-76
2022/05/23 08:06:19;;;;;;;5.17;4.70;;;;;;;;;;4916364;29;20467;-76
2022/05/23 08:08:48;;;;;;;5.03;4.53;;;;;;;;;;4913676;29;20464;-77
2022/05/23 08:11:17;;;;;;;6.30;4.50;;;;;;;;;;4934026;29;20451;-76
2022/05/23 08:14:02;;;;;;;4.70;4.30;;;;;;;;;;4911774;29;20472;-77
2022/05/23 08:16:32;;;;;;;6.07;4.60;;;;;;;;;;4915494;29;20464;-76
2022/05/23 08:19:00;;;;;;;4.97;4.47;;;;;;;;;;4923962;29;20499;-77
2022/05/23 08:21:27;;;;;;;5.60;4.83;;;;;;;;;;4914406;29;20460;-76
2022/05/23 08:23:56;;;;;;;4.80;4.30;;;;;;;;;;4916175;29;20505;-77
2022/05/23 08:26:28;;;;;;;5.27;4.77;;;;;;;;;;4910130;29;20445;-77
2022/05/23 08:28:55;;;;;;;7.07;4.80;;;;;;;;;;4929641;29;20503;-77
2022/05/23 08:31:26;;;;;;;5.37;4.87;;;;;;;;;;4910316;29;20508;-77
2022/05/23 08:34:08;;;;;;;6.87;5.07;;;;;;;;;;4916326;29;20459;-77
2022/05/23 08:36:35;;;;;;;6.30;5.70;;;;;;;;;;4925238;29;20483;-77
2022/05/23 08:39:04;;;;;;;8.27;5.17;;;;;;;;;;4922976;29;20455;-77
2022/05/23 08:41:50;;;;;;;5.20;4.80;;;;;;;;;;4919524;29;20456;-77
2022/05/23 08:44:58;;;;;;;8.20;5.27;;;;;;;;;;4833565;29;20449;-77
2022/05/23 08:47:33;;;;;;;5.20;4.70;;;;;;;;;;4812869;29;20486;-77
2022/05/23 08:50:08;;;;;;;5.63;5.13;;;;;;;;;;4874259;29;20468;-77
2022/05/23 08:52:37;;;;;;;6.40;5.10;;;;;;;;;;4897070;29;21050;-77
2022/05/23 08:55:17;;;;;;;6.23;5.13;;;;;;;;;;4914987;29;20538;-77
2022/05/23 08:58:00;;;;;;;5.70;5.10;;;;;;;;;;4915838;29;20452;-77
2022/05/23 09:00:32;;;;;;;5.97;5.30;;;;;;;;;;4893666;29;20824;-77
2022/05/23 09:03:03;;;;;;;5.83;5.33;;;;;;;;;;4913588;29;20925;-77
2022/05/23 09:05:38;;;;;;;6.03;4.83;;;;;;;;;;4905475;29;20465;-77
2022/05/23 09:08:06;;;;;;;5.73;5.10;;;;;;;;;;4917443;29;20559;-77
2022/05/23 09:10:39;;;;;;;6.00;5.40;;;;;;;;;;4917028;29;20977;-76
2022/05/23 09:13:07;;;;;;;6.47;5.17;;;;;;;;;;4925021;29;20495;-76
2022/05/23 09:15:34;;;;;;;5.87;5.37;;;;;;;;;;4935083;29;20472;-76
2022/05/23 09:18:03;;;;;;;5.43;4.93;;;;;;;;;;4917751;29;20888;-76
2022/05/23 09:20:34;;;;;;;9.30;5.13;;;;;;;;;;4913276;29;20547;-76
2022/05/23 09:23:22;;;;;;;5.30;4.90;;;;;;;;;;4920854;29;20458;-76
2022/05/23 09:25:52;;;;;;;5.37;4.87;;;;;;;;;;4915578;29;21260;-78
2022/05/23 09:28:21;;;;;;;5.23;4.83;;;;;;;;;;4915571;29;20508;-76
2022/05/23 09:30:53;;;;;;;7.63;4.90;;;;;;;;;;4916392;29;20962;-76
2022/05/23 09:33:21;;;;;;;6.20;5.23;;;;;;;;;;4914298;29;20456;-76
2022/05/23 09:35:50;;;;;;;5.33;4.83;;;;;;;;;;4914527;29;20552;-76
2022/05/23 09:38:19;;;;;;;5.40;4.57;;;;;;;;;;4921833;29;20466;-76
2022/05/23 09:41:01;;;;;;;5.23;4.73;;;;;;;;;;4910903;29;20568;-76
2022/05/23 09:49:03;;;;;;;5.63;5.13;;;;;;;;;;4910062;29;20426;-75
2022/05/23 09:51:31;;;;;;;7.23;5.70;;;;;;;;;;4920231;29;20441;-75
2022/05/23 09:54:00;;;;;;;6.10;5.50;;;;;;;;;;4916401;29;20505;-76
2022/05/23 09:56:32;;;;;;;7.90;5.53;;;;;;;;;;4920016;29;20476;-76
2022/05/23 09:59:01;;;;;;;7.70;5.90;;;;;;;;;;4912166;29;20828;-77
2022/05/23 10:01:34;;;;;;;6.77;4.90;;;;;;;;;;4903706;29;20551;-76
2022/05/23 10:04:02;;;;;;;6.13;5.53;;;;;;;;;;4914119;29;20500;-76
2022/05/23 10:06:36;;;;;;;6.10;5.50;;;;;;;;;;4912429;29;20801;-76
2022/05/23 10:09:04;;;;;;;9.37;6.03;;;;;;;;;;4920677;29;20475;-76
2022/05/23 10:11:56;;;;;;;5.30;4.73;;;;;;;;;;4914002;29;20457;-77
2022/05/23 10:14:24;;;;;;;8.10;6.03;;;;;;;;;;4914103;29;20544;-76
2022/05/23 10:16:53;;;;;;;5.93;5.33;;;;;;;;;;4910205;29;20473;-77
2022/05/23 10:19:31;;;;;;;5.43;5.03;;;;;;;;;;4912950;29;20505;-76
2022/05/23 10:22:09;;;;;;;5.50;5.00;;;;;;;;;;4915571;29;20456;-76
2022/05/23 10:24:37;;;;;;;5.60;5.10;;;;;;;;;;4912709;29;20476;-77
2022/05/23 10:27:07;;;;;;;6.47;5.83;;;;;;;;;;4913829;29;20450;-77
2022/05/23 10:29:40;;;;;;;6.60;5.90;;;;;;;;;;4918773;29;20475;-76
2022/05/23 10:32:09;;;;;;;5.77;5.17;;;;;;;;;;4913857;29;20445;-77
2022/05/23 10:34:39;;;;;;;6.47;5.73;;;;;;;;;;4912479;29;20471;-76
2022/05/23 10:37:09;;;;;;;5.00;4.60;;;;;;;;;;4913625;29;20469;-77
2022/05/23 10:42:27;;;;;;;6.50;5.60;;;;;;;;;;4923531;29;20970;-77
2022/05/23 10:45:06;;;;;;;5.50;5.00;;;;;;;;;;4906238;29;20556;-76
2022/05/23 10:47:38;;;;;;;5.80;5.30;;;;;;;;;;4909180;29;20504;-77
2022/05/23 10:50:11;;;;;;;5.63;5.07;;;;;;;;;;4925155;29;20472;-77
2022/05/23 10:52:41;;;;;;;5.03;4.60;;;;;;;;;;4908516;29;20442;-77
2022/05/23 10:55:13;;;;;;;6.20;4.80;;;;;;;;;;4905498;29;20464;-77
2022/05/23 10:57:59;;;;;;;5.17;4.77;;;;;;;;;;4898756;29;20469;-77
2022/05/23 11:00:29;;;;;;;7.90;4.77;;;;;;;;;;4912556;29;20512;-76
2022/05/23 11:03:01;;;;;;;5.30;4.80;;;;;;;;;;4915639;29;20823;-76
2022/05/23 11:05:29;;;;;;;5.07;4.60;;;;;;;;;;4923786;29;20488;-77
2022/05/23 11:08:13;;;;;;;5.27;4.50;;;;;;;;;;4913091;29;20853;-77
2022/05/23 11:10:46;;;;;;;5.33;4.83;;;;;;;;;;4915050;29;20495;-77
2022/05/23 11:13:19;;;;;;;5.83;5.20;;;;;;;;;;4915414;29;20437;-77
2022/05/23 11:15:54;;;;;;;7.70;5.53;;;;;;;;;;4917270;29;20461;-76
2022/05/23 11:18:26;;;;;;;9.47;6.30;;;;;;;;;;4932097;29;20869;-77
2022/05/23 11:20:55;;;;;;;6.47;5.87;;;;;;;;;;4912554;29;20794;-77
2022/05/23 11:23:25;;;;;;;6.50;5.90;;;;;;;;;;4928180;29;20464;-77
2022/05/23 11:25:54;;;;;;;6.63;6.00;;;;;;;;;;4905642;29;20493;-77
2022/05/23 11:33:58;;;;;;;7.47;6.50;;;;;;;;;;4915204;29;20501;-77
2022/05/23 11:36:34;;;;;;;9.83;6.37;;;;;;;;;;4915036;29;20500;-77
2022/05/23 11:39:00;;;;;;;12.60;6.50;;;;;;;;;;4915388;29;20437;-77
2022/05/23 11:41:28;;;;;;;16.07;7.27;;;;;;;;;;4912950;29;20453;-77
2022/05/23 11:43:56;;;;;;;6.47;5.20;;;;;;;;;;4912702;29;21023;-77
2022/05/23 11:46:26;;;;;;;5.67;4.80;;;;;;;;;;4914100;29;20426;-77
2022/05/23 11:48:54;;;;;;;7.70;4.20;;;;;;;;;;4913988;29;20445;-77
2022/05/23 11:51:36;;;;;;;5.57;4.30;;;;;;;;;;4913854;29;20545;-77
2022/05/23 11:54:06;;;;;;;4.40;3.53;;;;;;;;;;4914575;29;20445;-77
2022/05/23 11:56:35;;;;;;;5.47;3.07;;;;;;;;;;4913828;29;20529;-77
2022/05/23 11:59:04;;;;;;;4.33;3.33;;;;;;;;;;4913557;29;20940;-77
2022/05/23 12:01:31;;;;;;;3.30;2.47;;;;;;;;;;4910859;29;20462;-77
2022/05/23 12:04:08;;;;;;;8.00;2.60;;;;;;;;;;4915205;29;20480;-77
2022/05/23 12:06:45;;;;;;;6.60;2.67;;;;;;;;;;4932405;29;20994;-80
2022/05/23 12:09:29;;;;;;;5.13;2.50;;;;;;;;;;4934473;29;20444;-77
2022/05/23 12:12:10;;;;;;;7.37;2.47;;;;;;;;;;4932260;29;20879;-78
2022/05/23 12:14:51;;;;;;;4.43;1.90;;;;;;;;;;4935050;29;20490;-78
2022/05/23 12:17:25;;;;;;;3.90;2.40;;;;;;;;;;4930120;29;20818;-78
2022/05/23 12:19:53;;;;;;;7.00;2.90;;;;;;;;;;4919933;29;20473;-77
2022/05/23 12:22:26;;;;;;;3.60;2.67;;;;;;;;;;4907891;29;20531;-77
2022/05/23 12:24:57;;;;;;;4.33;2.23;;;;;;;;;;4897380;29;20893;-78
2022/05/23 12:27:26;;;;;;;5.83;3.07;;;;;;;;;;4933329;29;20432;-77
2022/05/23 12:30:21;;;;;;;4.33;2.37;;;;;;;;;;4917601;29;20462;-77
2022/05/23 12:32:50;;;;;;;5.70;3.17;;;;;;;;;;4915137;29;20460;-77
2022/05/23 12:35:17;;;;;;;3.00;2.40;;;;;;;;;;4931347;29;20459;-77
2022/05/23 12:37:49;;;;;;;4.90;2.80;;;;;;;;;;4936570;29;20495;-77
2022/05/23 12:40:20;;;;;;;3.33;2.40;;;;;;;;;;4934308;29;20466;-77
2022/05/23 12:42:51;;;;;;;4.40;2.80;;;;;;;;;;4918251;29;20432;-77
2022/05/23 12:45:28;;;;;;;3.73;2.90;;;;;;;;;;4933593;29;20460;-78
2022/05/23 12:48:03;;;;;;;3.67;2.70;;;;;;;;;;4923464;29;20476;-78
2022/05/23 12:50:35;;;;;;;4.53;3.17;;;;;;;;;;4934298;29;20495;-75
2022/05/23 12:53:10;;;;;;;8.10;2.50;;;;;;;;;;4935203;29;20464;-75
2022/05/23 12:55:43;;;;;;;4.40;2.60;;;;;;;;;;4914113;29;20456;-75
2022/05/23 12:58:20;;;;;;;5.50;2.17;;;;;;;;;;4928457;29;20499;-75
2022/05/23 13:00:48;;;;;;;5.77;2.40;;;;;;;;;;4929237;29;20519;-75
2022/05/23 13:03:22;;;;;;;4.47;2.43;;;;;;;;;;4907516;29;20478;-75
2022/05/23 13:05:52;;;;;;;5.50;3.10;;;;;;;;;;4931283;29;20468;-75
2022/05/23 13:08:23;;;;;;;4.10;2.90;;;;;;;;;;4918790;29;20460;-75
2022/05/23 13:10:52;;;;;;;9.93;3.37;;;;;;;;;;4919839;29;20572;-75
2022/05/23 13:13:21;;;;;;;8.00;2.80;;;;;;;;;;4932350;29;20436;-74
2022/05/23 13:15:49;;;;;;;5.70;2.17;;;;;;;;;;4929025;29;20554;-74
2022/05/23 13:23:52;;;;;;;4.33;2.20;;;;;;;;;;4923160;29;20885;-74
2022/05/23 13:26:19;;;;;;;5.40;2.67;;;;;;;;;;4912285;29;20503;-75
2022/05/23 13:28:49;;;;;;;3.60;2.27;;;;;;;;;;4931746;29;20555;-75
2022/05/23 13:31:23;;;;;;;5.07;2.67;;;;;;;;;;4933542;29;20523;-74
2022/05/23 13:33:51;;;;;;;5.43;2.80;;;;;;;;;;4910226;29;20469;-74
2022/05/23 13:36:18;;;;;;;3.47;2.40;;;;;;;;;;4916576;29;20456;-75
2022/05/23 13:38:57;;;;;;;4.13;2.53;;;;;;;;;;4949289;29;20487;-75
2022/05/23 13:41:26;;;;;;;5.30;2.80;;;;;;;;;;4938318;29;20449;-75
2022/05/23 13:43:52;;;;;;;9.13;2.57;;;;;;;;;;4931564;29;20464;-74
2022/05/23 13:46:23;;;;;;;4.90;2.83;;;;;;;;;;4925020;29;20462;-75
2022/05/23 13:48:52;;;;;;;4.50;3.10;;;;;;;;;;4936685;29;20486;-74
2022/05/23 13:51:21;;;;;;;5.37;2.63;;;;;;;;;;4930126;29;20906;-75
2022/05/23 13:53:50;;;;;;;5.53;2.87;;;;;;;;;;4946887;29;20542;-75
2022/05/23 13:56:17;;;;;;;5.40;2.77;;;;;;;;;;4945418;29;20854;-74
2022/05/23 13:58:48;;;;;;;4.57;2.80;;;;;;;;;;4934172;29;20483;-74
2022/05/23 14:01:20;;;;;;;5.50;2.63;;;;;;;;;;4906279;29;20520;-74
2022/05/23 14:03:49;;;;;;;4.63;2.43;;;;;;;;;;4919265;29;20482;-74
2022/05/23 14:06:20;;;;;;;3.90;2.67;;;;;;;;;;4919681;29;20462;-75
2022/05/23 14:08:52;;;;;;;4.30;2.93;;;;;;;;;;4902826;29;20886;-75
2022/05/23 14:11:20;;;;;;;4.00;2.97;;;;;;;;;;4915120;29;20809;-75
2022/05/23 14:13:47;;;;;;;4.57;3.00;;;;;;;;;;4915066;29;20548;-75
2022/05/23 14:16:15;;;;;;;4.87;2.60;;;;;;;;;;4916899;29;20456;-74
2022/05/23 14:18:42;;;;;;;4.73;2.97;;;;;;;;;;4927834;29;20477;-75
2022/05/23 14:21:30;;;;;;;5.03;2.40;;;;;;;;;;4913699;29;20477;-74
2022/05/23 14:23:57;;;;;;;4.40;3.03;;;;;;;;;;4916029;29;20484;-74
2022/05/23 14:26:23;;;;;;;5.30;3.13;;;;;;;;;;4922656;29;20476;-75
2022/05/23 14:28:54;;;;;;;3.87;2.80;;;;;;;;;;4921150;29;20489;-74
2022/05/23 14:31:31;;;;;;;6.23;2.33;;;;;;;;;;4916134;29;20544;-75
2022/05/23 14:34:00;;;;;;;5.87;2.67;;;;;;;;;;4916025;29;20544;-75
2022/05/23 14:36:28;;;;;;;6.37;2.80;;;;;;;;;;4914162;29;20544;-75
2022/05/23 14:38:57;;;;;;;5.77;2.50;;;;;;;;;;4931324;29;20583;-74
2022/05/23 14:41:26;;;;;;;2.73;2.27;;;;;;;;;;4922644;29;20474;-74
2022/05/23 14:43:57;;;;;;;4.03;2.63;;;;;;;;;;4898218;29;20449;-75
2022/05/23 14:46:26;;;;;;;5.33;2.40;;;;;;;;;;4913046;29;20470;-75
2022/05/23 14:48:53;;;;;;;4.60;2.07;;;;;;;;;;4915237;29;20789;-75
2022/05/23 14:51:27;;;;;;;4.60;2.33;;;;;;;;;;4913832;29;20453;-75
2022/05/23 14:56:44;;;;;;;3.80;2.70;;;;;;;;;;4909094;29;21020;-75
2022/05/23 15:02:00;;;;;;;6.03;2.40;;;;;;;;;;4909347;29;20466;-74
2022/05/23 15:04:28;;;;;;;4.87;3.03;;;;;;;;;;4913454;29;20487;-75
2022/05/23 15:06:55;;;;;;;3.67;2.67;;;;;;;;;;4913944;29;20974;-74
2022/05/23 15:09:23;;;;;;;4.00;2.70;;;;;;;;;;4928035;29;20467;-75
2022/05/23 15:11:50;;;;;;;6.30;2.73;;;;;;;;;;4913306;29;20464;-75
2022/05/23 15:14:17;;;;;;;4.60;2.77;;;;;;;;;;4911460;29;20449;-75
2022/05/23 15:16:44;;;;;;;4.00;2.80;;;;;;;;;;4911212;29;20512;-74
2022/05/23 15:19:14;;;;;;;7.13;3.10;;;;;;;;;;4913551;29;20528;-74
2022/05/23 15:21:41;;;;;;;5.13;2.80;;;;;;;;;;4915166;29;20463;-74
2022/05/23 15:24:10;;;;;;;4.70;3.03;;;;;;;;;;4914194;29;20437;-74
2022/05/23 15:26:39;;;;;;;7.27;3.10;;;;;;;;;;4917379;29;20463;-75
2022/05/23 15:29:05;;;;;;;6.40;3.00;;;;;;;;;;4924832;29;20441;-74
2022/05/23 15:31:33;;;;;;;5.33;3.20;;;;;;;;;;4913845;29;20445;-74
2022/05/23 15:34:00;;;;;;;6.33;3.40;;;;;;;;;;4910751;29;20834;-75
2022/05/23 15:36:27;;;;;;;4.87;3.10;;;;;;;;;;4903784;29;20470;-74
2022/05/23 15:38:53;;;;;;;4.40;3.40;;;;;;;;;;4913505;29;20469;-74
2022/05/23 15:41:20;;;;;;;6.00;3.53;;;;;;;;;;4912663;29;20471;-74
2022/05/23 15:43:47;;;;;;;6.00;3.23;;;;;;;;;;4917420;29;20876;-74
2022/05/23 15:46:18;;;;;;;4.83;3.17;;;;;;;;;;4921809;29;20475;-75
2022/05/23 15:48:44;;;;;;;4.30;3.20;;;;;;;;;;4914750;29;20949;-74
2022/05/23 15:51:12;;;;;;;4.90;2.67;;;;;;;;;;4914100;29;20491;-75
2022/05/23 15:53:40;;;;;;;4.83;3.73;;;;;;;;;;4913942;29;20925;-74
2022/05/23 15:56:09;;;;;;;7.67;3.20;;;;;;;;;;4918485;29;20967;-74
2022/05/23 15:58:37;;;;;;;4.87;3.57;;;;;;;;;;4921258;29;20486;-74
2022/05/23 16:01:12;;;;;;;4.20;3.10;;;;;;;;;;4912569;29;20460;-74
2022/05/23 16:03:38;;;;;;;9.20;3.37;;;;;;;;;;4919525;29;20474;-75
2022/05/23 16:06:05;;;;;;;6.20;3.53;;;;;;;;;;4917648;29;20555;-76
2022/05/23 16:08:32;;;;;;;4.30;3.60;;;;;;;;;;4939312;29;20449;-74
2022/05/23 16:11:00;;;;;;;4.67;3.30;;;;;;;;;;4930417;29;20547;-75
2022/05/23 16:13:27;;;;;;;6.37;3.07;;;;;;;;;;4928915;29;20511;-74
2022/05/23 16:15:54;;;;;;;5.77;3.20;;;;;;;;;;4937969;29;20459;-75